sensor_id;sensor_type;location;lat;lon;timestamp;P1;durP1;ratioP1;P2;durP2;ratioP2
35243;SDS011;37916;52.160;21.066;2023-11-19T00:02:01;45.55;;;22.27;;
35243;SDS011;37916;52.160;21.066;2023-11-19T00:12:08;45.08;;;20.60;;
35243;SDS011;37916;52.160;21.066;2023-11-19T00:22:09;43.83;;;21.27;;
35243;SDS011;37916;52.160;21.066;2023-11-19T00:32:10;41.08;;;21.17;;
35243;SDS011;37916;52.160;21.066;2023-11-19T00:42:11;41.13;;;21.05;;
35243;SDS011;37916;52.160;21.066;2023-11-19T00:52:12;43.95;;;21.73;;
35243;SDS011;37916;52.160;21.066;2023-11-19T01:02:13;47.90;;;21.98;;
35243;SDS011;37916;52.160;21.066;2023-11-19T01:12:15;42.95;;;20.83;;
35243;SDS011;37916;52.160;21.066;2023-11-19T01:22:16;49.30;;;22.10;;
35243;SDS011;37916;52.160;21.066;2023-11-19T01:32:18;51.42;;;23.42;;
35243;SDS011;37916;52.160;21.066;2023-11-19T01:42:20;44.47;;;20.83;;
35243;SDS011;37916;52.160;21.066;2023-11-19T01:52:21;43.95;;;20.25;;
35243;SDS011;37916;52.160;21.066;2023-11-19T02:02:22;41.58;;;20.20;;
35243;SDS011;37916;52.160;21.066;2023-11-19T02:12:23;42.35;;;19.50;;
35243;SDS011;37916;52.160;21.066;2023-11-19T02:22:24;46.83;;;21.92;;
35243;SDS011;37916;52.160;21.066;2023-11-19T02:32:27;46.88;;;20.63;;
35243;SDS011;37916;52.160;21.066;2023-11-19T02:42:30;44.33;;;19.67;;
35243;SDS011;37916;52.160;21.066;2023-11-19T02:52:32;46.00;;;20.67;;
35243;SDS011;37916;52.160;21.066;2023-11-19T03:02:40;42.75;;;19.52;;
35243;SDS011;37916;52.160;21.066;2023-11-19T03:12:48;43.75;;;20.05;;
35243;SDS011;37916;52.160;21.066;2023-11-19T03:22:49;44.85;;;19.08;;
35243;SDS011;37916;52.160;21.066;2023-11-19T03:32:51;41.72;;;20.02;;
35243;SDS011;37916;52.160;21.066;2023-11-19T03:42:52;47.55;;;20.90;;
35243;SDS011;37916;52.160;21.066;2023-11-19T03:52:56;51.75;;;21.70;;
35243;SDS011;37916;52.160;21.066;2023-11-19T04:02:57;32.43;;;14.13;;
35243;SDS011;37916;52.160;21.066;2023-11-19T04:13:01;42.53;;;18.70;;
35243;SDS011;37916;52.160;21.066;2023-11-19T04:23:02;40.70;;;17.17;;
35243;SDS011;37916;52.160;21.066;2023-11-19T04:33:03;42.22;;;18.85;;
35243;SDS011;37916;52.160;21.066;2023-11-19T04:43:05;42.85;;;18.30;;
35243;SDS011;37916;52.160;21.066;2023-11-19T04:53:07;38.95;;;17.83;;
35243;SDS011;37916;52.160;21.066;2023-11-19T05:03:08;40.75;;;16.52;;
35243;SDS011;37916;52.160;21.066;2023-11-19T05:13:09;38.65;;;17.20;;
35243;SDS011;37916;52.160;21.066;2023-11-19T05:23:10;38.10;;;17.52;;
35243;SDS011;37916;52.160;21.066;2023-11-19T05:33:11;34.15;;;16.27;;
35243;SDS011;37916;52.160;21.066;2023-11-19T05:43:12;36.05;;;17.42;;
35243;SDS011;37916;52.160;21.066;2023-11-19T05:53:15;34.40;;;15.35;;
35243;SDS011;37916;52.160;21.066;2023-11-19T06:03:16;29.98;;;15.43;;
35243;SDS011;37916;52.160;21.066;2023-11-19T06:13:17;33.33;;;15.18;;
35243;SDS011;37916;52.160;21.066;2023-11-19T06:23:19;27.98;;;13.57;;
35243;SDS011;37916;52.160;21.066;2023-11-19T06:33:20;26.85;;;13.75;;
35243;SDS011;37916;52.160;21.066;2023-11-19T06:43:24;27.17;;;12.52;;
35243;SDS011;37916;52.160;21.066;2023-11-19T06:53:25;22.77;;;10.30;;
35243;SDS011;37916;52.160;21.066;2023-11-19T07:03:28;17.13;;;8.82;;
35243;SDS011;37916;52.160;21.066;2023-11-19T07:13:29;14.52;;;8.27;;
35243;SDS011;37916;52.160;21.066;2023-11-19T07:23:30;15.65;;;9.07;;
35243;SDS011;37916;52.160;21.066;2023-11-19T07:33:31;16.05;;;9.75;;
35243;SDS011;37916;52.160;21.066;2023-11-19T07:43:32;15.65;;;8.70;;
35243;SDS011;37916;52.160;21.066;2023-11-19T07:53:33;18.67;;;10.30;;
35243;SDS011;37916;52.160;21.066;2023-11-19T08:03:34;15.40;;;9.85;;
35243;SDS011;37916;52.160;21.066;2023-11-19T08:13:35;17.95;;;10.80;;
35243;SDS011;37916;52.160;21.066;2023-11-19T08:23:36;17.65;;;10.98;;
35243;SDS011;37916;52.160;21.066;2023-11-19T08:33:38;17.27;;;9.95;;
35243;SDS011;37916;52.160;21.066;2023-11-19T08:43:39;18.80;;;11.20;;
35243;SDS011;37916;52.160;21.066;2023-11-19T08:53:41;22.60;;;12.18;;
35243;SDS011;37916;52.160;21.066;2023-11-19T09:03:42;21.48;;;11.38;;
35243;SDS011;37916;52.160;21.066;2023-11-19T09:13:43;20.05;;;11.88;;
35243;SDS011;37916;52.160;21.066;2023-11-19T09:23:45;23.02;;;12.23;;
35243;SDS011;37916;52.160;21.066;2023-11-19T09:33:47;21.85;;;11.57;;
35243;SDS011;37916;52.160;21.066;2023-11-19T09:43:48;19.70;;;12.00;;
35243;SDS011;37916;52.160;21.066;2023-11-19T09:53:49;21.00;;;11.40;;
35243;SDS011;37916;52.160;21.066;2023-11-19T10:03:54;21.58;;;11.38;;
35243;SDS011;37916;52.160;21.066;2023-11-19T10:13:56;22.60;;;12.70;;
35243;SDS011;37916;52.160;21.066;2023-11-19T10:23:59;21.85;;;12.30;;
35243;SDS011;37916;52.160;21.066;2023-11-19T10:34:00;20.33;;;12.47;;
35243;SDS011;37916;52.160;21.066;2023-11-19T10:44:01;23.25;;;12.85;;
35243;SDS011;37916;52.160;21.066;2023-11-19T10:54:06;20.60;;;11.48;;
35243;SDS011;37916;52.160;21.066;2023-11-19T11:14:08;19.27;;;11.05;;
35243;SDS011;37916;52.160;21.066;2023-11-19T11:54:31;19.70;;;11.77;;
35243;SDS011;37916;52.160;21.066;2023-11-19T12:04:33;22.23;;;13.18;;
35243;SDS011;37916;52.160;21.066;2023-11-19T12:24:54;19.90;;;11.93;;
35243;SDS011;37916;52.160;21.066;2023-11-19T12:34:56;22.92;;;13.02;;
35243;SDS011;37916;52.160;21.066;2023-11-19T12:44:57;22.80;;;12.27;;
35243;SDS011;37916;52.160;21.066;2023-11-19T13:05:34;20.83;;;12.23;;
35243;SDS011;37916;52.160;21.066;2023-11-19T13:15:36;20.07;;;11.50;;
35243;SDS011;37916;52.160;21.066;2023-11-19T13:25:37;23.15;;;12.27;;
35243;SDS011;37916;52.160;21.066;2023-11-19T13:35:41;22.15;;;11.80;;
35243;SDS011;37916;52.160;21.066;2023-11-19T13:45:45;23.00;;;13.03;;
35243;SDS011;37916;52.160;21.066;2023-11-19T13:55:46;22.92;;;12.85;;
35243;SDS011;37916;52.160;21.066;2023-11-19T14:05:47;24.25;;;13.38;;
35243;SDS011;37916;52.160;21.066;2023-11-19T14:15:52;30.88;;;15.98;;
35243;SDS011;37916;52.160;21.066;2023-11-19T14:25:53;26.90;;;14.85;;
35243;SDS011;37916;52.160;21.066;2023-11-19T14:35:54;26.60;;;14.55;;
35243;SDS011;37916;52.160;21.066;2023-11-19T14:45:55;28.52;;;15.43;;
35243;SDS011;37916;52.160;21.066;2023-11-19T14:55:56;28.55;;;15.60;;
35243;SDS011;37916;52.160;21.066;2023-11-19T15:05:57;25.02;;;13.60;;
35243;SDS011;37916;52.160;21.066;2023-11-19T15:15:58;29.05;;;14.95;;
35243;SDS011;37916;52.160;21.066;2023-11-19T15:26:00;28.60;;;14.93;;
35243;SDS011;37916;52.160;21.066;2023-11-19T15:36:01;33.88;;;17.42;;
35243;SDS011;37916;52.160;21.066;2023-11-19T15:46:08;31.75;;;17.27;;
35243;SDS011;37916;52.160;21.066;2023-11-19T15:56:09;32.75;;;16.90;;
35243;SDS011;37916;52.160;21.066;2023-11-19T16:06:10;35.05;;;18.42;;
35243;SDS011;37916;52.160;21.066;2023-11-19T16:16:14;33.92;;;17.45;;
35243;SDS011;37916;52.160;21.066;2023-11-19T16:26:15;31.08;;;17.05;;
35243;SDS011;37916;52.160;21.066;2023-11-19T16:36:16;36.08;;;17.38;;
35243;SDS011;37916;52.160;21.066;2023-11-19T16:46:17;29.27;;;16.20;;
35243;SDS011;37916;52.160;21.066;2023-11-19T16:56:21;31.77;;;15.53;;
35243;SDS011;37916;52.160;21.066;2023-11-19T17:06:22;30.55;;;15.63;;
35243;SDS011;37916;52.160;21.066;2023-11-19T17:16:23;27.73;;;15.95;;
35243;SDS011;37916;52.160;21.066;2023-11-19T17:26:24;30.23;;;14.93;;
35243;SDS011;37916;52.160;21.066;2023-11-19T17:56:47;23.95;;;13.73;;
35243;SDS011;37916;52.160;21.066;2023-11-19T18:06:48;29.27;;;15.43;;
35243;SDS011;37916;52.160;21.066;2023-11-19T18:16:49;24.48;;;15.52;;
35243;SDS011;37916;52.160;21.066;2023-11-19T19:28:23;30.60;;;14.82;;
35243;SDS011;37916;52.160;21.066;2023-11-19T19:38:24;25.95;;;15.23;;
35243;SDS011;37916;52.160;21.066;2023-11-19T19:48:26;27.88;;;16.90;;
35243;SDS011;37916;52.160;21.066;2023-11-19T19:58:29;29.07;;;15.83;;
35243;SDS011;37916;52.160;21.066;2023-11-19T20:08:32;28.20;;;14.50;;
35243;SDS011;37916;52.160;21.066;2023-11-19T20:18:33;22.27;;;13.35;;
35243;SDS011;37916;52.160;21.066;2023-11-19T20:28:35;25.70;;;13.07;;
35243;SDS011;37916;52.160;21.066;2023-11-19T20:38:37;26.40;;;13.70;;
35243;SDS011;37916;52.160;21.066;2023-11-19T20:48:38;23.60;;;12.75;;
35243;SDS011;37916;52.160;21.066;2023-11-19T20:58:40;22.45;;;12.68;;
35243;SDS011;37916;52.160;21.066;2023-11-19T21:08:41;22.65;;;13.20;;
35243;SDS011;37916;52.160;21.066;2023-11-19T21:18:42;22.73;;;12.18;;
35243;SDS011;37916;52.160;21.066;2023-11-19T21:28:43;19.77;;;11.90;;
35243;SDS011;37916;52.160;21.066;2023-11-19T21:38:44;21.30;;;12.75;;
35243;SDS011;37916;52.160;21.066;2023-11-19T21:48:45;17.10;;;10.90;;
35243;SDS011;37916;52.160;21.066;2023-11-19T21:58:46;21.98;;;12.40;;
35243;SDS011;37916;52.160;21.066;2023-11-19T22:08:47;19.85;;;11.18;;
35243;SDS011;37916;52.160;21.066;2023-11-19T22:18:48;19.10;;;11.20;;
35243;SDS011;37916;52.160;21.066;2023-11-19T22:28:50;19.90;;;11.40;;
35243;SDS011;37916;52.160;21.066;2023-11-19T22:38:51;19.23;;;10.95;;
35243;SDS011;37916;52.160;21.066;2023-11-19T22:48:52;22.92;;;12.73;;
35243;SDS011;37916;52.160;21.066;2023-11-19T22:58:53;24.42;;;12.85;;
35243;SDS011;37916;52.160;21.066;2023-11-19T23:08:54;21.00;;;13.15;;
35243;SDS011;37916;52.160;21.066;2023-11-19T23:18:55;19.90;;;12.15;;
35243;SDS011;37916;52.160;21.066;2023-11-19T23:28:56;22.08;;;11.98;;
35243;SDS011;37916;52.160;21.066;2023-11-19T23:38:57;20.05;;;10.73;;
35243;SDS011;37916;52.160;21.066;2023-11-19T23:48:58;17.42;;;10.40;;
35243;SDS011;37916;52.160;21.066;2023-11-19T23:58:59;18.52;;;10.90;;
